Time;durP1;ratioP1;P1;durP2;ratioP2;P2;SDS_P1;SDS_P2;PMS_P1;PMS_P2;Temp;Humidity;BMP_temperature;BMP_pressure;BME280_temperature;BME280_humidity;BME280_pressure;Samples;Min_cycle;Max_cycle;Signal;HPM_P1;HPM_P2
2022/07/24 00:00:50;;;;;;;8.35;2.97;;;20.30;79.90;;;;;;2076917;28;20040;-85
2022/07/24 00:01:51;;;;;;;11.03;3.33;;;20.30;80.40;;;;;;2082479;28;20036;-89
2022/07/24 00:02:52;;;;;;;6.23;3.00;;;20.30;80.30;;;;;;2075356;28;20445;-88
2022/07/24 00:03:52;;;;;;;8.73;3.40;;;20.30;80.20;;;;;;2083594;28;20045;-88
2022/07/24 00:04:56;;;;;;;6.77;3.20;;;20.20;80.00;;;;;;2083663;28;20053;-87
2022/07/24 00:05:57;;;;;;;10.05;3.13;;;20.30;80.10;;;;;;2084846;28;20044;-86
2022/07/24 00:06:58;;;;;;;7.25;3.00;;;20.30;80.10;;;;;;2093862;28;20297;-86
2022/07/24 00:07:59;;;;;;;7.03;3.40;;;20.30;80.20;;;;;;2084027;28;20037;-86
2022/07/24 00:09:00;;;;;;;7.53;3.38;;;20.30;80.40;;;;;;2074274;28;20151;-86
2022/07/24 00:10:03;;;;;;;7.18;3.30;;;20.30;80.50;;;;;;2083492;28;20448;-88
2022/07/24 00:11:04;;;;;;;12.48;4.03;;;20.30;80.40;;;;;;2083269;28;20037;-88
2022/07/24 00:12:05;;;;;;;8.07;2.97;;;20.30;80.30;;;;;;2077086;28;20263;-88
2022/07/24 00:13:06;;;;;;;8.30;3.20;;;20.30;80.40;;;;;;2083523;28;20029;-88
2022/07/24 00:14:07;;;;;;;7.63;3.20;;;20.30;80.50;;;;;;2091627;28;20029;-88
2022/07/24 00:15:08;;;;;;;8.30;3.40;;;20.30;80.40;;;;;;2090411;28;20414;-86
2022/07/24 00:16:09;;;;;;;8.30;3.45;;;20.30;80.60;;;;;;2083222;28;20037;-88
2022/07/24 00:17:10;;;;;;;10.67;3.97;;;20.30;80.60;;;;;;2081127;28;20487;-86
2022/07/24 00:18:11;;;;;;;6.27;3.50;;;20.30;80.60;;;;;;2075211;28;20284;-88
2022/07/24 00:19:11;;;;;;;5.40;3.27;;;20.30;80.60;;;;;;2079343;28;20049;-86
2022/07/24 00:20:12;;;;;;;10.07;3.87;;;20.30;80.50;;;;;;2083268;28;20033;-87
2022/07/24 00:21:13;;;;;;;11.27;3.50;;;20.30;80.50;;;;;;2083029;28;20040;-86
2022/07/24 00:22:14;;;;;;;7.70;2.93;;;20.30;80.50;;;;;;2081983;28;20029;-89
2022/07/24 00:23:15;;;;;;;10.70;3.90;;;20.30;80.50;;;;;;2075024;28;20114;-88
2022/07/24 00:24:16;;;;;;;6.90;3.17;;;20.30;80.50;;;;;;2091438;28;20099;-87
2022/07/24 00:25:16;;;;;;;7.37;3.17;;;20.30;80.50;;;;;;2075017;28;20030;-90
2022/07/24 00:26:17;;;;;;;7.23;3.20;;;20.30;80.40;;;;;;2081821;28;20440;-88
2022/07/24 00:27:18;;;;;;;9.20;3.23;;;20.30;80.60;;;;;;2073546;28;20423;-86
2022/07/24 00:28:20;;;;;;;5.53;3.13;;;20.30;80.50;;;;;;2066108;28;20050;-87
2022/07/24 00:29:20;;;;;;;5.32;3.25;;;20.30;80.50;;;;;;2074981;28;20022;-89
2022/07/24 00:30:21;;;;;;;9.67;3.23;;;20.30;80.40;;;;;;2083064;28;20029;-88
2022/07/24 00:31:22;;;;;;;5.67;3.30;;;20.30;80.60;;;;;;2091314;28;20040;-87
2022/07/24 00:32:23;;;;;;;7.10;3.90;;;20.20;80.40;;;;;;2083018;28;20460;-86
2022/07/24 00:33:24;;;;;;;3.77;2.57;;;20.30;80.40;;;;;;2083100;28;20044;-89
2022/07/24 00:34:25;;;;;;;8.70;4.00;;;20.30;80.40;;;;;;2086844;28;20110;-89
2022/07/24 00:35:25;;;;;;;5.57;3.33;;;20.20;80.40;;;;;;2090224;28;20080;-88
2022/07/24 00:36:26;;;;;;;7.67;4.03;;;20.20;80.20;;;;;;2091284;28;20115;-87
2022/07/24 00:37:27;;;;;;;8.33;3.07;;;20.20;80.30;;;;;;2091261;28;20119;-87
2022/07/24 00:38:28;;;;;;;7.57;3.30;;;20.30;80.50;;;;;;2083220;28;20029;-87
2022/07/24 00:39:29;;;;;;;8.65;3.20;;;20.20;80.40;;;;;;2078606;28;20026;-88
2022/07/24 00:40:30;;;;;;;5.53;3.13;;;20.20;80.40;;;;;;2074933;28;20460;-86
2022/07/24 00:41:31;;;;;;;7.43;3.17;;;20.20;80.40;;;;;;2072674;28;20060;-87
2022/07/24 00:42:31;;;;;;;6.93;3.20;;;20.20;80.40;;;;;;2073870;28;20065;-86
2022/07/24 00:43:33;;;;;;;13.83;3.03;;;20.20;80.40;;;;;;2091338;28;20475;-85
2022/07/24 00:44:33;;;;;;;5.80;3.47;;;20.20;80.40;;;;;;2104344;28;20039;-86
2022/07/24 00:45:34;;;;;;;8.43;3.20;;;20.20;80.30;;;;;;2091384;28;20039;-86
2022/07/24 00:46:37;;;;;;;9.47;3.10;;;20.20;80.40;;;;;;2097015;28;20367;-87
2022/07/24 00:47:38;;;;;;;9.13;3.13;;;20.20;80.50;;;;;;2091378;28;20428;-88
2022/07/24 00:48:39;;;;;;;5.10;2.80;;;20.20;80.50;;;;;;2081887;28;20310;-88
2022/07/24 00:49:39;;;;;;;7.97;2.80;;;20.10;80.50;;;;;;2086224;28;20021;-88
2022/07/24 00:50:40;;;;;;;9.53;2.87;;;20.20;80.60;;;;;;2082879;28;20481;-87
2022/07/24 00:51:43;;;;;;;8.07;3.17;;;20.20;80.60;;;;;;2088976;28;20103;-87
2022/07/24 00:52:45;;;;;;;6.97;3.35;;;20.10;80.50;;;;;;2099010;28;20020;-88
2022/07/24 00:53:46;;;;;;;;;;;20.10;80.50;;;;;;2083430;28;20258;-89
2022/07/24 00:54:47;;;;;;;5.85;3.20;;;20.10;80.50;;;;;;2081587;28;19912;-89
2022/07/24 00:55:47;;;;;;;9.17;3.53;;;20.10;80.40;;;;;;2090052;28;20085;-90
2022/07/24 00:56:51;;;;;;;8.87;3.13;;;20.10;80.50;;;;;;2082786;28;20432;-87
2022/07/24 00:57:51;;;;;;;10.95;3.17;;;20.10;80.60;;;;;;2084170;28;20056;-87
2022/07/24 00:58:52;;;;;;;12.03;3.20;;;20.10;80.50;;;;;;2082955;28;20251;-86
2022/07/24 00:59:53;;;;;;;6.80;3.03;;;20.10;80.50;;;;;;2066536;28;20022;-87
2022/07/24 01:00:54;;;;;;;6.63;2.83;;;20.10;80.70;;;;;;2090003;28;20084;-85
2022/07/24 01:01:55;;;;;;;8.20;3.10;;;20.10;80.60;;;;;;2103795;28;20287;-89
2022/07/24 01:02:56;;;;;;;9.13;2.80;;;20.10;80.60;;;;;;2082177;28;20025;-89
2022/07/24 01:03:57;;;;;;;5.78;2.90;;;20.10;80.60;;;;;;2079877;28;20112;-86
2022/07/24 01:04:58;;;;;;;7.65;3.13;;;20.10;80.60;;;;;;2074632;28;20068;-87
2022/07/24 01:05:59;;;;;;;6.93;2.90;;;20.20;80.80;;;;;;2090602;28;20059;-88
2022/07/24 01:07:00;;;;;;;10.77;3.40;;;20.10;80.70;;;;;;2082687;28;20345;-86
2022/07/24 01:08:01;;;;;;;7.07;3.03;;;20.20;80.90;;;;;;2083016;28;20034;-88
2022/07/24 01:09:02;;;;;;;8.35;2.95;;;20.20;80.80;;;;;;2081717;28;20044;-87
2022/07/24 01:10:04;;;;;;;9.63;3.47;;;20.20;80.80;;;;;;2074690;28;20042;-87
2022/07/24 01:11:05;;;;;;;;;;;20.10;81.80;;;;;;2082898;28;20266;-90
2022/07/24 01:12:13;;;;;;;9.10;3.17;;;20.10;81.30;;;;;;2086914;28;19909;-88
2022/07/24 01:13:14;;;;;;;9.60;2.70;;;20.10;81.20;;;;;;2092051;28;20324;-89
2022/07/24 01:14:16;;;;;;;13.80;3.03;;;20.10;81.10;;;;;;2093504;28;20037;-87
2022/07/24 01:15:16;;;;;;;11.93;2.97;;;20.10;81.20;;;;;;2089694;28;20029;-87
2022/07/24 01:16:17;;;;;;;5.33;2.50;;;20.10;81.10;;;;;;2082761;28;20075;-88
2022/07/24 01:17:19;;;;;;;7.47;3.37;;;20.10;81.20;;;;;;2074510;28;20056;-88
2022/07/24 01:18:20;;;;;;;5.32;2.88;;;20.10;81.20;;;;;;2074848;28;20168;-89
2022/07/24 01:19:21;;;;;;;12.37;3.13;;;20.10;81.30;;;;;;2080341;28;20266;-88
2022/07/24 01:20:22;;;;;;;7.67;2.73;;;20.10;81.50;;;;;;2099201;28;20028;-88
2022/07/24 01:21:23;;;;;;;7.23;2.83;;;20.00;81.50;;;;;;2099145;28;20043;-88
2022/07/24 01:22:25;;;;;;;5.07;2.60;;;20.10;81.40;;;;;;2081603;28;20087;-87
2022/07/24 01:23:26;;;;;;;5.57;2.63;;;20.10;81.40;;;;;;2083105;28;20478;-88
2022/07/24 01:24:27;;;;;;;11.57;2.70;;;20.10;81.40;;;;;;2085137;28;20278;-89
2022/07/24 01:25:28;;;;;;;11.57;3.20;;;20.10;81.40;;;;;;2074452;28;20124;-88
2022/07/24 01:26:29;;;;;;;8.32;2.40;;;20.00;81.30;;;;;;2074656;28;20041;-87
2022/07/24 01:27:30;;;;;;;5.67;2.27;;;20.00;81.50;;;;;;2077197;28;20033;-87
2022/07/24 01:28:31;;;;;;;7.87;2.97;;;20.00;81.70;;;;;;2082135;28;20025;-87
2022/07/24 01:29:31;;;;;;;8.13;3.40;;;20.00;81.70;;;;;;2080386;28;20021;-90
2022/07/24 01:30:32;;;;;;;9.23;2.83;;;20.00;82.00;;;;;;2074621;28;20022;-88
2022/07/24 01:31:33;;;;;;;9.33;2.57;;;20.00;82.10;;;;;;2082626;28;20021;-88
2022/07/24 01:32:34;;;;;;;4.93;2.50;;;20.00;81.80;;;;;;2077158;28;20294;-89
2022/07/24 01:33:35;;;;;;;5.10;2.53;;;20.00;82.10;;;;;;2082672;28;20270;-86
2022/07/24 01:34:36;;;;;;;4.80;2.03;;;20.00;82.10;;;;;;2074355;28;20056;-88
2022/07/24 01:35:37;;;;;;;3.20;2.23;;;20.00;81.90;;;;;;2081567;28;20030;-89
2022/07/24 01:36:37;;;;;;;5.80;2.20;;;20.00;81.80;;;;;;2082719;28;20258;-87
2022/07/24 01:37:38;;;;;;;5.50;2.20;;;20.00;81.90;;;;;;2082524;28;20035;-89
2022/07/24 01:38:39;;;;;;;4.60;2.27;;;20.00;82.10;;;;;;2082716;28;20029;-86
2022/07/24 01:39:40;;;;;;;8.73;2.73;;;20.00;82.00;;;;;;2077485;28;20040;-89
2022/07/24 01:40:41;;;;;;;4.50;2.30;;;20.00;82.00;;;;;;2074505;28;20054;-88
2022/07/24 01:41:42;;;;;;;7.50;2.67;;;20.00;82.00;;;;;;2081127;28;20065;-86
2022/07/24 01:42:43;;;;;;;6.20;2.33;;;20.00;82.10;;;;;;2082409;28;20029;-90
2022/07/24 01:43:44;;;;;;;5.30;2.83;;;20.00;81.90;;;;;;2082698;28;20463;-85
2022/07/24 01:44:44;;;;;;;5.80;2.43;;;20.00;81.90;;;;;;2082562;28;20029;-89
2022/07/24 01:45:45;;;;;;;7.63;3.10;;;20.00;82.00;;;;;;2091100;28;20042;-87
2022/07/24 01:46:46;;;;;;;8.23;2.37;;;20.00;82.00;;;;;;2093625;28;20041;-88
2022/07/24 01:47:47;;;;;;;9.17;2.90;;;20.00;82.10;;;;;;2084528;28;20056;-87
2022/07/24 01:48:48;;;;;;;5.65;2.92;;;20.00;82.00;;;;;;2081945;28;20037;-88
2022/07/24 01:49:49;;;;;;;5.33;2.70;;;20.00;82.00;;;;;;2090747;28;20051;-86
2022/07/24 01:50:49;;;;;;;8.30;2.43;;;20.00;82.00;;;;;;2066345;28;20037;-88
2022/07/24 01:51:50;;;;;;;7.93;2.90;;;20.00;82.10;;;;;;2073506;28;20026;-87
2022/07/24 01:52:52;;;;;;;6.63;2.50;;;19.90;81.90;;;;;;2084171;28;20067;-90
2022/07/24 01:53:53;;;;;;;11.55;3.22;;;20.00;82.10;;;;;;2082553;28;20033;-86
2022/07/24 01:54:54;;;;;;;7.27;2.40;;;19.90;82.20;;;;;;2083101;28;20266;-90
2022/07/24 01:55:55;;;;;;;9.10;2.77;;;20.00;82.20;;;;;;2082326;28;20025;-88
2022/07/24 01:56:56;;;;;;;6.00;2.42;;;19.90;82.20;;;;;;2089790;28;20029;-87
2022/07/24 01:57:57;;;;;;;4.20;2.23;;;20.00;82.30;;;;;;2090726;28;20100;-88
2022/07/24 01:58:58;;;;;;;4.95;2.25;;;19.90;82.30;;;;;;2074415;28;20120;-88
2022/07/24 02:00:00;;;;;;;8.75;2.88;;;19.90;82.40;;;;;;2078646;28;20514;-87
2022/07/24 02:01:00;;;;;;;5.55;2.30;;;19.90;82.30;;;;;;2082595;28;20021;-86
2022/07/24 02:02:01;;;;;;;9.73;2.90;;;19.90;82.20;;;;;;2084550;28;20033;-88
2022/07/24 02:03:02;;;;;;;7.07;2.13;;;19.90;82.20;;;;;;2082517;28;20124;-86
2022/07/24 02:04:03;;;;;;;9.70;2.60;;;19.90;82.50;;;;;;2074302;28;20036;-86
2022/07/24 02:05:05;;;;;;;9.38;2.83;;;19.90;82.40;;;;;;2090604;28;20025;-89
2022/07/24 02:06:06;;;;;;;5.88;2.17;;;19.90;82.50;;;;;;2090849;28;20025;-88
2022/07/24 02:07:07;;;;;;;6.53;2.10;;;19.90;82.30;;;;;;2090707;28;20045;-90
2022/07/24 02:08:08;;;;;;;8.70;2.60;;;19.90;82.50;;;;;;2074404;28;20480;-89
2022/07/24 02:09:08;;;;;;;7.80;2.37;;;19.90;82.60;;;;;;2081278;28;20403;-86
2022/07/24 02:10:12;;;;;;;7.83;2.80;;;19.90;82.60;;;;;;2082303;28;20052;-87
2022/07/24 02:11:13;;;;;;;5.43;2.30;;;19.90;82.60;;;;;;2082909;28;20036;-88
2022/07/24 02:12:13;;;;;;;5.57;2.50;;;19.90;82.40;;;;;;2090825;28;20293;-89
2022/07/24 02:13:14;;;;;;;5.60;2.40;;;19.90;82.20;;;;;;2091183;28;20458;-87
2022/07/24 02:14:15;;;;;;;5.40;2.20;;;19.90;82.10;;;;;;2083529;28;20030;-88
2022/07/24 02:15:16;;;;;;;6.60;2.43;;;19.90;82.10;;;;;;2075094;28;20030;-87
2022/07/24 02:16:16;;;;;;;8.60;3.00;;;19.90;82.10;;;;;;2084207;28;20044;-88
2022/07/24 02:17:17;;;;;;;9.00;2.80;;;19.90;82.00;;;;;;2078973;28;20035;-89
2022/07/24 02:18:18;;;;;;;3.63;2.40;;;19.90;82.10;;;;;;2092413;28;20131;-89
2022/07/24 02:19:19;;;;;;;6.37;2.70;;;20.00;82.10;;;;;;2081567;28;20030;-89
2022/07/24 02:20:20;;;;;;;6.83;2.70;;;19.90;82.30;;;;;;2075894;28;20113;-91
2022/07/24 02:21:20;;;;;;;7.73;2.60;;;19.90;82.30;;;;;;2084141;28;20052;-87
2022/07/24 02:22:21;;;;;;;7.07;3.05;;;20.00;82.30;;;;;;2083084;28;20033;-90
2022/07/24 02:23:22;;;;;;;8.60;2.80;;;19.90;82.50;;;;;;2076039;28;20033;-87
2022/07/24 02:24:23;;;;;;;8.87;3.23;;;19.90;82.50;;;;;;2084065;28;20790;-86
2022/07/24 02:25:24;;;;;;;6.17;2.80;;;19.90;82.30;;;;;;2084006;28;20120;-87
2022/07/24 02:26:25;;;;;;;6.10;3.03;;;19.90;82.20;;;;;;2083712;28;20436;-90
2022/07/24 02:27:25;;;;;;;6.47;2.47;;;19.90;82.20;;;;;;2083969;28;20042;-88
2022/07/24 02:28:26;;;;;;;6.43;2.80;;;19.90;82.40;;;;;;2083113;28;20029;-87
2022/07/24 02:29:27;;;;;;;7.60;3.10;;;19.90;82.20;;;;;;2080836;28;20028;-90
2022/07/24 02:30:28;;;;;;;7.90;3.10;;;19.90;82.20;;;;;;2084094;28;20037;-89
2022/07/24 02:31:28;;;;;;;8.73;2.60;;;20.00;82.20;;;;;;2092305;28;20122;-88
2022/07/24 02:32:29;;;;;;;5.43;2.90;;;20.00;82.30;;;;;;2084087;28;20073;-87
2022/07/24 02:33:30;;;;;;;7.27;2.93;;;19.90;82.20;;;;;;2075814;28;20049;-89
2022/07/24 02:34:31;;;;;;;6.13;2.73;;;19.90;82.30;;;;;;2079333;28;20526;-90
2022/07/24 02:35:32;;;;;;;6.43;2.87;;;20.00;82.50;;;;;;2074910;28;20018;-87
2022/07/24 02:36:32;;;;;;;4.47;2.20;;;20.00;82.60;;;;;;2075940;28;20068;-90
2022/07/24 02:37:37;;;;;;;5.80;2.23;;;19.90;82.50;;;;;;2084662;28;20029;-89
2022/07/24 02:38:38;;;;;;;7.22;2.47;;;19.90;82.60;;;;;;2092851;28;20068;-88
2022/07/24 02:39:38;;;;;;;6.73;3.13;;;19.90;82.60;;;;;;2079727;28;20270;-88
2022/07/24 02:40:39;;;;;;;4.80;2.70;;;19.90;82.50;;;;;;2076449;28;20049;-88
2022/07/24 02:41:40;;;;;;;6.30;3.00;;;19.90;82.50;;;;;;2084014;28;20041;-87
2022/07/24 02:42:42;;;;;;;9.07;2.70;;;19.90;82.60;;;;;;2092175;28;20443;-89
2022/07/24 02:43:42;;;;;;;3.83;2.22;;;19.90;82.80;;;;;;2076011;28;20088;-87
2022/07/24 02:44:43;;;;;;;11.67;3.03;;;19.90;82.60;;;;;;2084166;28;20103;-90
2022/07/24 02:45:44;;;;;;;8.23;3.07;;;19.90;82.60;;;;;;2084936;28;20112;-87
2022/07/24 02:46:45;;;;;;;8.37;3.37;;;19.90;82.40;;;;;;2085199;28;20546;-87
2022/07/24 02:47:51;;;;;;;6.82;3.03;;;20.00;82.60;;;;;;2092330;28;20558;-87
2022/07/24 02:48:52;;;;;;;7.15;3.17;;;19.90;82.70;;;;;;2083753;28;20536;-87
2022/07/24 02:49:53;;;;;;;11.70;3.30;;;19.90;82.50;;;;;;2084114;28;20301;-88
2022/07/24 02:50:54;;;;;;;5.37;2.83;;;19.90;82.50;;;;;;2091486;28;20035;-87
2022/07/24 02:51:55;;;;;;;7.78;2.47;;;19.90;82.50;;;;;;2083818;28;20040;-88
2022/07/24 02:52:56;;;;;;;5.40;2.30;;;20.00;82.50;;;;;;2075855;28;20072;-89
2022/07/24 02:53:57;;;;;;;9.50;3.40;;;19.90;82.60;;;;;;2075778;28;20109;-88
2022/07/24 02:54:57;;;;;;;8.77;3.10;;;19.90;83.40;;;;;;2066525;28;20030;-89
2022/07/24 02:55:58;;;;;;;5.43;2.73;;;19.90;82.70;;;;;;2084012;28;20032;-88
2022/07/24 02:56:59;;;;;;;5.27;2.70;;;20.00;82.70;;;;;;2075677;28;20572;-85
2022/07/24 02:58:00;;;;;;;9.53;3.07;;;19.90;82.50;;;;;;2067581;28;20034;-87
2022/07/24 02:59:00;;;;;;;9.03;2.80;;;19.90;82.60;;;;;;2079963;28;20375;-88
2022/07/24 03:00:06;;;;;;;6.97;3.30;;;19.90;82.60;;;;;;2083813;28;20029;-89
2022/07/24 03:01:07;;;;;;;9.00;3.40;;;19.90;82.70;;;;;;2091996;28;20067;-90
2022/07/24 03:02:07;;;;;;;16.52;2.78;;;19.90;82.80;;;;;;2090801;28;20270;-87
2022/07/24 03:03:08;;;;;;;7.13;2.90;;;19.90;83.00;;;;;;2083863;28;20474;-87
2022/07/24 03:04:09;;;;;;;8.77;3.30;;;19.80;83.10;;;;;;2083720;28;20035;-87
2022/07/24 03:05:10;;;;;;;6.23;2.80;;;19.80;83.20;;;;;;2075687;28;20041;-87
2022/07/24 03:06:11;;;;;;;7.53;2.75;;;19.80;83.20;;;;;;2083454;28;20333;-86
2022/07/24 03:07:12;;;;;;;6.37;2.67;;;19.80;83.10;;;;;;2084373;28;20044;-87
2022/07/24 03:08:12;;;;;;;5.70;2.17;;;19.80;83.10;;;;;;2075560;28;20400;-90
2022/07/24 03:09:13;;;;;;;6.50;2.50;;;19.80;83.20;;;;;;2086803;28;20108;-88
2022/07/24 03:10:15;;;;;;;7.80;2.80;;;19.80;83.20;;;;;;2091958;28;20033;-89
2022/07/24 03:11:16;;;;;;;;;;;19.80;83.30;;;;;;2082651;28;20029;-89
2022/07/24 03:12:17;;;;;;;6.72;2.50;;;19.80;83.10;;;;;;2083612;28;20345;-87
2022/07/24 03:13:17;;;;;;;8.83;2.23;;;19.80;83.20;;;;;;2083895;28;20029;-90
2022/07/24 03:14:18;;;;;;;5.10;2.40;;;19.80;83.20;;;;;;2087469;28;20016;-88
2022/07/24 03:15:19;;;;;;;8.67;2.63;;;19.80;83.50;;;;;;2082640;28;20057;-87
2022/07/24 03:16:20;;;;;;;15.77;2.63;;;19.80;83.50;;;;;;2081833;28;20160;-89
2022/07/24 03:17:20;;;;;;;7.30;2.93;;;19.80;83.60;;;;;;2075214;28;20038;-88
2022/07/24 03:18:21;;;;;;;7.93;3.07;;;19.80;83.60;;;;;;2075607;28;20037;-88
2022/07/24 03:19:22;;;;;;;8.87;2.70;;;19.80;83.50;;;;;;2087052;28;20509;-87
2022/07/24 03:20:24;;;;;;;6.13;2.53;;;19.80;83.70;;;;;;2083573;28;20510;-89
2022/07/24 03:21:25;;;;;;;6.55;2.92;;;19.80;83.70;;;;;;2093802;28;20500;-88
2022/07/24 03:22:26;;;;;;;7.93;2.40;;;19.80;83.70;;;;;;2090722;28;20296;-87
2022/07/24 03:23:27;;;;;;;7.37;2.47;;;19.80;83.70;;;;;;2083725;28;20036;-87
2022/07/24 03:24:28;;;;;;;6.83;2.40;;;19.80;83.80;;;;;;2080275;28;20022;-86
2022/07/24 03:25:28;;;;;;;5.40;2.20;;;19.80;83.90;;;;;;2090940;28;20127;-87
2022/07/24 03:26:29;;;;;;;4.70;2.30;;;19.80;83.80;;;;;;2085461;28;20039;-87
2022/07/24 03:27:30;;;;;;;8.73;2.50;;;19.80;83.70;;;;;;2085162;28;20125;-87
2022/07/24 03:28:31;;;;;;;3.93;2.40;;;19.80;83.70;;;;;;2085420;28;20034;-88
2022/07/24 03:29:31;;;;;;;5.50;2.80;;;19.80;83.90;;;;;;2079494;28;20029;-90
2022/07/24 03:30:32;;;;;;;5.57;1.80;;;19.80;83.90;;;;;;2083557;28;20071;-88
2022/07/24 03:31:33;;;;;;;8.60;2.23;;;19.80;84.00;;;;;;2086092;28;20026;-90
2022/07/24 03:32:34;;;;;;;7.20;2.50;;;19.80;83.80;;;;;;2091841;28;20103;-88
2022/07/24 03:33:35;;;;;;;6.27;2.50;;;19.80;84.00;;;;;;2091899;28;20025;-86
2022/07/24 03:34:35;;;;;;;7.47;3.10;;;19.80;84.10;;;;;;2083498;28;20112;-87
2022/07/24 03:35:36;;;;;;;7.23;2.67;;;19.80;84.00;;;;;;2082624;28;20061;-87
2022/07/24 03:36:37;;;;;;;9.40;2.80;;;19.80;84.00;;;;;;2097115;28;20058;-89
2022/07/24 03:37:38;;;;;;;5.70;2.77;;;19.80;84.10;;;;;;2091886;28;20265;-89
2022/07/24 03:38:39;;;;;;;7.27;2.73;;;19.80;84.10;;;;;;2091915;28;20347;-89
2022/07/24 03:39:40;;;;;;;11.27;2.77;;;19.80;84.10;;;;;;2083520;28;20084;-89
2022/07/24 03:40:40;;;;;;;6.40;2.80;;;19.80;84.10;;;;;;2075454;28;20040;-89
2022/07/24 03:41:41;;;;;;;7.37;3.10;;;19.80;84.10;;;;;;2087362;28;20048;-90
2022/07/24 03:42:42;;;;;;;8.23;2.43;;;19.80;84.40;;;;;;2075355;28;20061;-91
2022/07/24 03:43:43;;;;;;;5.37;2.20;;;19.70;84.20;;;;;;2075415;28;20458;-89
2022/07/24 03:44:44;;;;;;;6.10;2.23;;;19.80;84.10;;;;;;2084629;28;20025;-89
2022/07/24 03:45:45;;;;;;;6.37;2.30;;;19.80;84.00;;;;;;2083330;28;20095;-90
2022/07/24 03:46:45;;;;;;;5.90;2.30;;;19.80;84.10;;;;;;2087005;28;20044;-88
2022/07/24 03:47:46;;;;;;;4.10;2.40;;;19.70;84.10;;;;;;2091782;28;20029;-88
2022/07/24 03:48:47;;;;;;;6.53;2.47;;;19.80;84.10;;;;;;2090660;28;20089;-86
2022/07/24 03:49:48;;;;;;;8.52;2.45;;;19.80;84.10;;;;;;2083461;28;20029;-88
2022/07/24 03:50:49;;;;;;;9.03;2.50;;;19.80;84.10;;;;;;2083420;28;20041;-89
2022/07/24 03:51:50;;;;;;;4.60;1.63;;;19.70;84.20;;;;;;2083271;28;20045;-89
2022/07/24 03:52:50;;;;;;;9.47;2.30;;;19.70;84.90;;;;;;2091729;28;20037;-86
2022/07/24 03:53:51;;;;;;;6.47;2.20;;;19.70;84.00;;;;;;2077023;28;20026;-89
2022/07/24 03:54:52;;;;;;;7.27;2.03;;;19.70;84.00;;;;;;2083334;28;20022;-88
2022/07/24 03:55:53;;;;;;;5.83;2.47;;;19.70;84.10;;;;;;2082399;28;20033;-89
2022/07/24 03:56:53;;;;;;;4.40;2.27;;;19.70;84.10;;;;;;2086718;28;20058;-89
2022/07/24 03:57:54;;;;;;;10.77;2.57;;;19.70;83.80;;;;;;2108292;28;20114;-91
2022/07/24 03:58:55;;;;;;;6.40;2.23;;;19.80;84.10;;;;;;2091601;28;20463;-87
2022/07/24 03:59:56;;;;;;;5.20;2.40;;;19.80;84.20;;;;;;2083300;28;20040;-87
2022/07/24 04:00:57;;;;;;;5.93;2.00;;;19.70;84.10;;;;;;2083427;28;20128;-89
2022/07/24 04:01:57;;;;;;;5.57;2.27;;;19.70;84.20;;;;;;2085299;28;20021;-88
2022/07/24 04:02:58;;;;;;;6.13;2.53;;;19.70;84.10;;;;;;2083385;28;20034;-87
2022/07/24 04:04:04;;;;;;;10.00;2.67;;;19.70;84.10;;;;;;2080743;28;20040;-89
2022/07/24 04:05:08;;;;;;;5.63;2.20;;;19.70;84.20;;;;;;2084673;28;20116;-90
2022/07/24 04:06:09;;;;;;;5.53;2.50;;;19.70;84.20;;;;;;2083047;28;20271;-87
2022/07/24 04:07:09;;;;;;;3.05;2.08;;;19.70;84.20;;;;;;2078843;28;20267;-89
2022/07/24 04:08:10;;;;;;;6.10;2.50;;;19.70;84.30;;;;;;2083316;28;20034;-89
2022/07/24 04:09:11;;;;;;;8.33;2.60;;;19.70;84.40;;;;;;2088855;28;20079;-89
2022/07/24 04:10:12;;;;;;;8.87;2.60;;;19.70;84.30;;;;;;2091419;28;20028;-89
2022/07/24 04:11:13;;;;;;;8.57;2.97;;;19.70;84.30;;;;;;2083228;28;20270;-88
2022/07/24 04:12:13;;;;;;;6.83;2.80;;;19.70;84.30;;;;;;2082085;28;20031;-89
2022/07/24 04:13:14;;;;;;;13.00;2.77;;;19.70;84.30;;;;;;2075042;28;20030;-87
2022/07/24 04:14:15;;;;;;;8.40;2.50;;;19.70;84.30;;;;;;2072972;28;20457;-86
2022/07/24 04:15:16;;;;;;;4.82;2.17;;;19.70;84.30;;;;;;2074027;28;20053;-88
2022/07/24 04:16:17;;;;;;;6.93;2.87;;;19.70;84.20;;;;;;2091465;28;20100;-88
2022/07/24 04:17:17;;;;;;;11.43;2.57;;;19.70;84.40;;;;;;2079880;28;20030;-90
2022/07/24 04:18:18;;;;;;;5.13;2.83;;;19.70;84.40;;;;;;2083219;28;20451;-89
2022/07/24 04:19:19;;;;;;;5.90;2.53;;;19.70;84.30;;;;;;2089182;28;20017;-87
2022/07/24 04:20:20;;;;;;;4.97;2.63;;;19.70;84.40;;;;;;2075127;28;20379;-88
2022/07/24 04:21:21;;;;;;;4.80;2.23;;;19.70;84.40;;;;;;2083185;28;20128;-87
2022/07/24 04:22:21;;;;;;;3.80;2.50;;;19.70;84.20;;;;;;2076964;28;20033;-87
2022/07/24 04:23:22;;;;;;;4.83;2.17;;;19.70;84.30;;;;;;2074970;28;20053;-87
2022/07/24 04:24:23;;;;;;;8.43;3.03;;;19.70;84.30;;;;;;2083226;28;20104;-88
2022/07/24 04:25:24;;;;;;;4.75;2.38;;;19.70;84.20;;;;;;2074851;28;20030;-89
2022/07/24 04:26:26;;;;;;;8.87;2.67;;;19.70;84.20;;;;;;2083169;28;20061;-88
2022/07/24 04:27:27;;;;;;;5.22;2.55;;;19.70;84.10;;;;;;2077840;28;20124;-88
2022/07/24 04:28:27;;;;;;;10.83;2.47;;;19.70;84.30;;;;;;2082088;28;20029;-89
2022/07/24 04:29:28;;;;;;;5.53;2.17;;;19.60;84.40;;;;;;2096930;28;20386;-90
2022/07/24 04:30:30;;;;;;;6.77;2.23;;;19.60;84.40;;;;;;2091367;28;20112;-88
2022/07/24 04:31:30;;;;;;;5.50;2.50;;;19.60;84.30;;;;;;2091452;28;20039;-89
2022/07/24 04:32:32;;;;;;;4.57;2.70;;;19.60;84.40;;;;;;2080394;28;20056;-86
2022/07/24 04:33:32;;;;;;;7.80;2.80;;;19.60;84.40;;;;;;2074989;28;20476;-87
2022/07/24 04:34:33;;;;;;;9.53;2.83;;;19.60;84.40;;;;;;2088554;28;20025;-89
2022/07/24 04:35:34;;;;;;;10.60;2.85;;;19.60;84.50;;;;;;2082065;28;20033;-87
2022/07/24 04:36:35;;;;;;;4.97;2.27;;;19.60;84.40;;;;;;2082856;28;20047;-91
2022/07/24 04:37:36;;;;;;;5.93;2.73;;;19.60;84.50;;;;;;2082975;28;20364;-89
2022/07/24 04:38:37;;;;;;;6.70;2.60;;;19.60;84.50;;;;;;2091526;28;20048;-85
2022/07/24 04:39:37;;;;;;;7.90;2.67;;;19.60;84.60;;;;;;2082982;28;20117;-88
2022/07/24 04:40:38;;;;;;;6.53;2.97;;;19.60;84.60;;;;;;2091450;28;20029;-91
2022/07/24 04:41:40;;;;;;;7.47;2.80;;;19.60;84.50;;;;;;2092842;28;20039;-87
2022/07/24 04:42:41;;;;;;;7.03;2.70;;;19.60;84.50;;;;;;2091713;28;20037;-90
2022/07/24 04:43:41;;;;;;;6.88;3.15;;;19.60;84.50;;;;;;2084729;28;20029;-92
2022/07/24 04:44:42;;;;;;;5.60;2.67;;;19.60;84.60;;;;;;2084091;28;20040;-91
2022/07/24 04:45:44;;;;;;;8.57;2.70;;;19.60;84.60;;;;;;2083015;28;20041;-90
2022/07/24 04:46:44;;;;;;;7.18;3.03;;;19.60;84.70;;;;;;2078429;28;20072;-88
2022/07/24 04:47:45;;;;;;;5.80;2.47;;;19.60;84.60;;;;;;2091225;28;20096;-90
2022/07/24 04:48:46;;;;;;;4.13;2.30;;;19.60;84.70;;;;;;2090307;28;20028;-86
2022/07/24 04:49:47;;;;;;;10.25;3.15;;;19.60;84.70;;;;;;2083799;28;20034;-89
2022/07/24 04:50:47;;;;;;;9.17;3.70;;;19.60;84.80;;;;;;2091652;28;20025;-89
2022/07/24 04:51:48;;;;;;;7.53;2.63;;;19.60;84.60;;;;;;2086800;28;20531;-89
2022/07/24 04:52:49;;;;;;;12.80;3.10;;;19.60;84.50;;;;;;2083257;28;20026;-86
2022/07/24 04:53:52;;;;;;;10.13;2.87;;;19.60;84.60;;;;;;2083250;28;20022;-88
2022/07/24 04:54:53;;;;;;;7.35;2.80;;;19.60;84.60;;;;;;2084423;28;20469;-88
2022/07/24 04:55:54;;;;;;;6.05;2.85;;;19.60;84.60;;;;;;2082371;28;20258;-87
2022/07/24 04:56:54;;;;;;;10.47;3.10;;;19.60;84.50;;;;;;2083240;28;20021;-89
2022/07/24 04:57:55;;;;;;;8.83;3.17;;;19.60;84.60;;;;;;2083178;28;20025;-89
2022/07/24 04:58:56;;;;;;;6.13;3.17;;;19.60;84.70;;;;;;2083372;28;20527;-90
2022/07/24 04:59:57;;;;;;;8.15;3.25;;;19.60;84.70;;;;;;2090942;28;20049;-88
2022/07/24 05:00:58;;;;;;;8.23;3.07;;;19.60;84.80;;;;;;2075253;28;20080;-87
2022/07/24 05:01:59;;;;;;;8.03;2.90;;;19.60;85.40;;;;;;2077309;28;20029;-88
2022/07/24 05:03:00;;;;;;;8.40;3.13;;;19.60;84.60;;;;;;2083103;28;20034;-89
2022/07/24 05:04:00;;;;;;;9.03;2.83;;;19.60;84.60;;;;;;2075150;28;20057;-90
2022/07/24 05:05:01;;;;;;;11.10;3.27;;;19.60;84.50;;;;;;2075218;28;20365;-88
2022/07/24 05:06:02;;;;;;;6.57;2.37;;;19.60;84.40;;;;;;2082976;28;20025;-86
2022/07/24 05:07:03;;;;;;;11.57;3.00;;;19.60;84.50;;;;;;2082897;28;20096;-87
2022/07/24 05:08:04;;;;;;;5.60;2.85;;;19.60;84.50;;;;;;2083309;28;20060;-85
2022/07/24 05:09:05;;;;;;;10.73;2.80;;;19.60;84.60;;;;;;2089685;28;20035;-87
2022/07/24 05:10:06;;;;;;;8.07;2.65;;;19.60;84.50;;;;;;2093039;28;20272;-89
2022/07/24 05:11:07;;;;;;;10.15;2.88;;;19.60;84.40;;;;;;2100161;28;20033;-89
2022/07/24 05:12:08;;;;;;;11.73;3.67;;;19.60;84.60;;;;;;2097373;28;20048;-89
2022/07/24 05:13:09;;;;;;;7.53;2.90;;;19.60;84.60;;;;;;2074852;28;20037;-88
2022/07/24 05:14:10;;;;;;;4.83;2.80;;;19.60;84.60;;;;;;2080147;28;20068;-88
2022/07/24 05:15:10;;;;;;;10.50;3.10;;;19.60;84.60;;;;;;2073604;28;20068;-90
2022/07/24 05:16:11;;;;;;;7.93;2.53;;;19.60;84.60;;;;;;2090936;28;20025;-90
2022/07/24 05:17:12;;;;;;;10.60;2.87;;;19.60;84.60;;;;;;2074473;28;20040;-87